createdAt,value
2022-10-04T00:00:13.961Z,10
2022-10-04T00:01:13.957Z,10
2022-10-04T00:02:14.041Z,10
2022-10-04T00:04:14.035Z,10
2022-10-04T00:05:13.969Z,11
2022-10-04T00:06:13.968Z,9
2022-10-04T00:07:13.962Z,9
2022-10-04T00:08:13.961Z,12
2022-10-04T00:09:13.959Z,11
2022-10-04T00:10:13.963Z,8
2022-10-04T00:11:13.985Z,10
2022-10-04T00:12:13.962Z,9
2022-10-04T00:13:13.966Z,11
2022-10-04T00:14:13.964Z,9
2022-10-04T00:15:13.963Z,9
2022-10-04T00:16:14.032Z,10
2022-10-04T00:17:13.950Z,10
2022-10-04T00:18:13.953Z,12
2022-10-04T00:19:13.969Z,10
2022-10-04T00:20:13.972Z,10
2022-10-04T00:21:13.939Z,10
2022-10-04T00:22:14.038Z,11
2022-10-04T00:23:13.973Z,12
2022-10-04T00:24:13.992Z,11
2022-10-04T00:25:13.965Z,11
2022-10-04T00:26:13.967Z,9
2022-10-04T00:27:13.967Z,11
2022-10-04T00:28:14.025Z,11
2022-10-04T00:29:13.965Z,10
2022-10-04T00:30:13.979Z,8
2022-10-04T00:31:14.035Z,12
2022-10-04T00:33:13.962Z,10
2022-10-04T00:34:13.978Z,12
2022-10-04T00:35:13.979Z,9
2022-10-04T00:36:13.974Z,14
2022-10-04T00:37:13.997Z,10
2022-10-04T00:38:13.975Z,10
2022-10-04T00:39:13.966Z,9
2022-10-04T00:40:13.970Z,12
2022-10-04T00:41:13.964Z,11
2022-10-04T00:42:13.972Z,12
2022-10-04T00:43:13.969Z,11
2022-10-04T00:44:13.981Z,11
2022-10-04T00:45:13.977Z,13
2022-10-04T00:46:14.050Z,10
2022-10-04T00:47:13.972Z,12
2022-10-04T00:48:14.003Z,10
2022-10-04T00:49:14.005Z,11
2022-10-04T00:50:13.969Z,12
2022-10-04T00:51:13.986Z,12
2022-10-04T00:52:13.978Z,10
2022-10-04T00:54:13.997Z,13
2022-10-04T00:55:14.067Z,11
2022-10-04T00:56:13.994Z,12
2022-10-04T00:57:13.976Z,13
2022-10-04T00:58:13.982Z,16
2022-10-04T00:59:13.978Z,12
2022-10-04T01:00:13.972Z,14
2022-10-04T01:01:13.982Z,11
2022-10-04T01:02:14.083Z,11
2022-10-04T01:04:13.978Z,13
2022-10-04T01:05:13.974Z,11
2022-10-04T01:06:13.990Z,13
2022-10-04T01:07:14.001Z,11
2022-10-04T01:08:13.987Z,15
2022-10-04T01:09:13.985Z,15
2022-10-04T01:10:13.985Z,13
2022-10-04T01:11:13.985Z,12
2022-10-04T01:12:13.984Z,14
2022-10-04T01:13:13.964Z,11
2022-10-04T01:14:13.974Z,11
2022-10-04T01:15:13.981Z,13
2022-10-04T01:16:14.052Z,11
2022-10-04T01:17:13.984Z,13
2022-10-04T01:18:13.984Z,11
2022-10-04T01:19:13.978Z,10
2022-10-04T01:20:14.000Z,14
2022-10-04T01:21:14.001Z,13
2022-10-04T01:22:13.987Z,11
2022-10-04T01:23:13.981Z,11
2022-10-04T01:24:14.004Z,15
2022-10-04T01:25:13.992Z,14
2022-10-04T01:26:14.007Z,15
2022-10-04T01:27:13.983Z,14
2022-10-04T01:28:14.014Z,14
2022-10-04T01:29:13.979Z,10
2022-10-04T01:30:13.981Z,11
2022-10-04T01:31:14.068Z,10
2022-10-04T01:32:13.985Z,10
2022-10-04T01:33:13.990Z,13
2022-10-04T01:34:13.995Z,11
2022-10-04T01:35:13.992Z,11
2022-10-04T01:36:14.000Z,12
2022-10-04T01:37:13.984Z,10
2022-10-04T01:38:14.017Z,11
2022-10-04T01:39:13.987Z,11
2022-10-04T01:40:13.985Z,12
2022-10-04T01:41:13.994Z,11
2022-10-04T01:42:13.995Z,11
2022-10-04T01:43:13.992Z,10
2022-10-04T01:44:13.989Z,11
2022-10-04T01:45:13.994Z,12
2022-10-04T01:46:14.028Z,12
2022-10-04T01:47:14.065Z,13
2022-10-04T01:48:14.002Z,11
2022-10-04T01:49:14.041Z,10
2022-10-04T01:50:15.982Z,11
2022-10-04T01:51:13.980Z,12
2022-10-04T01:52:13.978Z,13
2022-10-04T01:53:14.024Z,12
2022-10-04T01:54:13.991Z,10
2022-10-04T01:55:14.002Z,12
2022-10-04T01:56:14.047Z,12
2022-10-04T01:57:14.035Z,12
2022-10-04T01:58:13.993Z,10
2022-10-04T01:59:13.988Z,11
2022-10-04T02:00:14.009Z,12
2022-10-04T02:01:14.059Z,13
2022-10-04T02:02:14.000Z,13
2022-10-04T02:03:13.999Z,12
2022-10-04T02:04:16.259Z,12
2022-10-04T02:05:14.023Z,12
2022-10-04T02:06:13.990Z,13
2022-10-04T02:07:14.001Z,11
2022-10-04T02:08:14.002Z,14
2022-10-04T02:09:14.004Z,12
2022-10-04T02:10:14.004Z,11
2022-10-04T02:11:13.998Z,14
2022-10-04T02:12:14.007Z,12
2022-10-04T02:13:14.003Z,9
2022-10-04T02:14:14.059Z,10
2022-10-04T02:15:14.009Z,12
2022-10-04T02:16:14.047Z,12
2022-10-04T02:17:13.992Z,13
2022-10-04T02:18:13.995Z,8
2022-10-04T02:19:13.997Z,10
2022-10-04T02:20:13.999Z,15
2022-10-04T02:21:14.009Z,12
2022-10-04T02:22:13.988Z,12
2022-10-04T02:23:13.993Z,12
2022-10-04T02:24:13.991Z,13
2022-10-04T02:25:14.003Z,11
2022-10-04T02:27:13.998Z,12
2022-10-04T02:28:14.114Z,17
2022-10-04T02:29:14.006Z,11
2022-10-04T02:30:14.007Z,12
2022-10-04T02:31:14.068Z,11
2022-10-04T02:32:14.007Z,11
2022-10-04T02:33:13.996Z,9
2022-10-04T02:34:14.006Z,16
2022-10-04T02:35:14.004Z,12
2022-10-04T02:36:14.017Z,16
2022-10-04T02:37:14.024Z,11
2022-10-04T02:38:13.993Z,13
2022-10-04T02:39:14.009Z,14
2022-10-04T02:40:14.025Z,12
2022-10-04T02:41:14.015Z,13
2022-10-04T02:42:14.002Z,11
2022-10-04T02:43:14.007Z,9
2022-10-04T02:44:14.001Z,11
2022-10-04T02:45:14.009Z,11
2022-10-04T02:46:14.068Z,13
2022-10-04T02:48:14.021Z,12
2022-10-04T02:49:14.325Z,17
2022-10-04T02:50:14.033Z,10
2022-10-04T02:51:14.011Z,13
2022-10-04T02:52:14.735Z,12
2022-10-04T02:53:13.995Z,11
2022-10-04T02:54:14.003Z,13
2022-10-04T02:55:14.010Z,11
2022-10-04T02:56:14.050Z,12
2022-10-04T02:57:14.056Z,12
2022-10-04T02:58:14.009Z,12
2022-10-04T02:59:14.042Z,13
2022-10-04T03:00:14.009Z,11
2022-10-04T03:01:14.062Z,11
2022-10-04T03:02:14.119Z,12
2022-10-04T03:03:14.017Z,10
2022-10-04T03:04:14.015Z,9
2022-10-04T03:05:14.023Z,11
2022-10-04T03:06:14.018Z,10
2022-10-04T03:07:14.024Z,12
2022-10-04T03:08:14.011Z,10
2022-10-04T03:09:14.026Z,11
2022-10-04T03:10:14.016Z,15
2022-10-04T03:11:14.014Z,13
2022-10-04T03:12:14.018Z,12
2022-10-04T03:13:14.005Z,12
2022-10-04T03:14:14.011Z,12
2022-10-04T03:15:14.053Z,10
2022-10-04T03:16:14.135Z,9
2022-10-04T03:17:14.025Z,12
2022-10-04T03:18:14.008Z,12
2022-10-04T03:19:14.012Z,10
2022-10-04T03:21:14.023Z,10
2022-10-04T03:22:14.017Z,10
2022-10-04T03:23:14.019Z,10
2022-10-04T03:24:14.014Z,11
2022-10-04T03:25:14.035Z,11
2022-10-04T03:26:14.023Z,11
2022-10-04T03:27:14.023Z,9
2022-10-04T03:28:14.080Z,9
2022-10-04T03:30:14.066Z,10
2022-10-04T03:31:14.061Z,12
2022-10-04T03:32:14.021Z,10
2022-10-04T03:33:14.064Z,8
2022-10-04T03:34:14.023Z,9
2022-10-04T03:35:14.024Z,10
2022-10-04T03:36:14.026Z,9
2022-10-04T03:37:14.028Z,11
2022-10-04T03:38:14.024Z,14
2022-10-04T03:39:14.039Z,9
2022-10-04T03:40:14.026Z,11
2022-10-04T03:41:14.049Z,10
2022-10-04T03:42:14.021Z,11
2022-10-04T03:43:14.034Z,12
2022-10-04T03:44:14.039Z,10
2022-10-04T03:45:14.030Z,12
2022-10-04T03:46:14.108Z,12
2022-10-04T03:47:14.019Z,9
2022-10-04T03:48:14.024Z,11
2022-10-04T03:50:14.018Z,10
2022-10-04T03:51:14.021Z,8
2022-10-04T03:52:14.020Z,10
2022-10-04T03:53:14.057Z,11
2022-10-04T03:54:14.017Z,10
2022-10-04T03:55:14.034Z,10
2022-10-04T03:56:14.028Z,9
2022-10-04T03:57:14.018Z,10
2022-10-04T03:58:14.035Z,8
2022-10-04T03:59:14.080Z,13
2022-10-04T04:00:14.032Z,10
2022-10-04T04:01:14.116Z,11
2022-10-04T04:02:14.093Z,9
2022-10-04T04:03:14.054Z,10
2022-10-04T04:04:14.045Z,10
2022-10-04T04:06:14.069Z,8
2022-10-04T04:07:14.044Z,11
2022-10-04T04:08:14.104Z,10
2022-10-04T04:09:14.035Z,10
2022-10-04T04:10:16.800Z,11
2022-10-04T04:11:14.031Z,8
2022-10-04T04:12:14.044Z,10
2022-10-04T04:13:14.035Z,8
2022-10-04T04:15:14.043Z,9
2022-10-04T04:16:14.100Z,11
2022-10-04T04:17:14.044Z,8
2022-10-04T04:18:14.035Z,7
2022-10-04T04:19:14.036Z,10
2022-10-04T04:20:14.045Z,11
2022-10-04T04:21:14.074Z,9
2022-10-04T04:22:14.028Z,8
2022-10-04T04:23:14.034Z,11
2022-10-04T04:24:14.032Z,13
2022-10-04T04:25:14.450Z,11
2022-10-04T04:26:14.027Z,10
2022-10-04T04:27:14.031Z,9
2022-10-04T04:28:14.199Z,10
2022-10-04T04:29:14.028Z,12
2022-10-04T04:30:14.064Z,11
2022-10-04T04:31:14.057Z,9
2022-10-04T04:32:14.163Z,8
2022-10-04T04:33:15.700Z,8
2022-10-04T04:34:14.059Z,9
2022-10-04T04:35:14.054Z,8
2022-10-04T04:36:14.033Z,8
2022-10-04T04:37:14.059Z,11
2022-10-04T04:38:14.033Z,9
2022-10-04T04:39:14.033Z,9
2022-10-04T04:40:14.035Z,9
2022-10-04T04:41:14.053Z,12
2022-10-04T04:42:14.031Z,9
2022-10-04T04:44:14.048Z,10
2022-10-04T04:45:14.053Z,10
2022-10-04T04:46:29.450Z,8
2022-10-04T04:47:17.591Z,11
2022-10-04T04:48:14.037Z,11
2022-10-04T04:49:14.065Z,10
2022-10-04T04:50:14.027Z,9
2022-10-04T04:51:14.078Z,9
2022-10-04T04:52:14.040Z,10
2022-10-04T04:53:14.045Z,10
2022-10-04T04:54:14.037Z,9
2022-10-04T04:55:14.041Z,10
2022-10-04T04:56:17.454Z,11
2022-10-04T04:57:14.063Z,10
2022-10-04T04:58:14.054Z,9
2022-10-04T04:59:14.038Z,12
2022-10-04T05:00:14.058Z,8
2022-10-04T05:01:14.145Z,10
2022-10-04T05:02:14.080Z,9
2022-10-04T05:03:14.059Z,11
2022-10-04T05:05:14.110Z,11
2022-10-04T05:06:14.047Z,9
2022-10-04T05:08:14.057Z,10
2022-10-04T05:09:14.064Z,13
2022-10-04T05:10:14.038Z,10
2022-10-04T05:11:14.046Z,13
2022-10-04T05:12:14.044Z,12
2022-10-04T05:13:14.067Z,11
2022-10-04T05:14:14.050Z,13
2022-10-04T05:15:15.336Z,11
2022-10-04T05:16:14.111Z,14
2022-10-04T05:17:14.051Z,11
2022-10-04T05:18:14.044Z,12
2022-10-04T05:19:14.042Z,11
2022-10-04T05:20:14.055Z,13
2022-10-04T05:21:14.050Z,13
2022-10-04T05:22:14.037Z,11
2022-10-04T05:23:14.046Z,9
2022-10-04T05:24:14.066Z,11
2022-10-04T05:25:14.040Z,12
2022-10-04T05:26:14.052Z,13
2022-10-04T05:27:14.114Z,9
2022-10-04T05:28:14.097Z,13
2022-10-04T05:29:14.042Z,10
2022-10-04T05:30:14.045Z,9
2022-10-04T05:32:14.059Z,5
2022-10-04T05:33:14.044Z,4
2022-10-04T05:34:14.078Z,6
2022-10-04T05:35:14.047Z,6
2022-10-04T05:36:14.056Z,5
2022-10-04T05:37:14.054Z,6
2022-10-04T05:38:14.057Z,7
2022-10-04T05:39:14.066Z,6
2022-10-04T05:40:14.057Z,8
2022-10-04T05:41:14.054Z,8
2022-10-04T05:42:14.045Z,9
2022-10-04T05:43:14.041Z,9
2022-10-04T05:44:14.049Z,12
2022-10-04T05:45:14.068Z,8
2022-10-04T05:46:14.114Z,8
2022-10-04T05:47:14.066Z,9
2022-10-04T05:48:14.060Z,10
2022-10-04T05:49:18.908Z,10
2022-10-04T05:50:14.057Z,9
2022-10-04T05:51:14.064Z,10
2022-10-04T05:52:14.070Z,11
2022-10-04T05:53:14.069Z,7
2022-10-04T05:54:14.054Z,6
2022-10-04T05:55:14.091Z,5
2022-10-04T05:56:14.053Z,8
2022-10-04T05:57:14.122Z,9
2022-10-04T05:58:14.065Z,11
2022-10-04T05:59:14.065Z,5
2022-10-04T06:00:14.061Z,10
2022-10-04T06:01:14.171Z,8
2022-10-04T06:02:14.120Z,10
2022-10-04T06:03:14.068Z,12
2022-10-04T06:04:14.082Z,8
2022-10-04T06:05:14.085Z,10
2022-10-04T06:06:14.061Z,10
2022-10-04T06:07:14.105Z,9
2022-10-04T06:08:14.063Z,9
2022-10-04T06:09:14.128Z,9
2022-10-04T06:10:14.065Z,11
2022-10-04T06:11:14.054Z,12
2022-10-04T06:12:14.102Z,11
2022-10-04T06:13:14.094Z,11
2022-10-04T06:14:14.083Z,11
2022-10-04T06:15:14.055Z,10
2022-10-04T06:16:14.119Z,11
2022-10-04T06:17:14.076Z,10
2022-10-04T06:18:14.095Z,7
2022-10-04T06:19:14.072Z,11
2022-10-04T06:20:14.062Z,9
2022-10-04T06:21:14.095Z,11
2022-10-04T06:22:14.061Z,9
2022-10-04T06:23:14.059Z,11
2022-10-04T06:24:14.877Z,11
2022-10-04T06:25:14.059Z,9
2022-10-04T06:26:14.084Z,11
2022-10-04T06:27:14.056Z,9
2022-10-04T06:28:14.097Z,8
2022-10-04T06:29:14.064Z,8
2022-10-04T06:30:14.092Z,11
2022-10-04T06:31:14.122Z,12
2022-10-04T06:32:14.070Z,12
2022-10-04T06:33:14.059Z,9
2022-10-04T06:34:14.068Z,10
2022-10-04T06:35:14.069Z,9
2022-10-04T06:36:14.150Z,12
2022-10-04T06:37:14.067Z,10
2022-10-04T06:38:14.072Z,8
2022-10-04T06:39:14.099Z,10
2022-10-04T06:40:14.068Z,14
2022-10-04T06:41:14.065Z,11
2022-10-04T06:42:14.072Z,11
2022-10-04T06:43:14.085Z,11
2022-10-04T06:44:14.083Z,12
2022-10-04T06:45:14.079Z,10
2022-10-04T06:46:14.169Z,10
2022-10-04T06:47:14.072Z,10
2022-10-04T06:48:14.073Z,11
2022-10-04T06:49:14.096Z,8
2022-10-04T06:50:14.087Z,10
2022-10-04T06:51:14.078Z,11
2022-10-04T06:52:17.341Z,9
2022-10-04T06:53:14.078Z,11
2022-10-04T06:54:14.072Z,9
2022-10-04T06:55:14.078Z,8
2022-10-04T06:56:14.125Z,10
2022-10-04T06:57:14.082Z,10
2022-10-04T06:58:14.079Z,10
2022-10-04T06:59:14.073Z,9
2022-10-04T07:00:14.094Z,11
2022-10-04T07:01:14.174Z,7
2022-10-04T07:02:14.176Z,10
2022-10-04T07:03:14.084Z,11
2022-10-04T07:04:14.081Z,9
2022-10-04T07:05:14.076Z,12
2022-10-04T07:06:14.082Z,7
2022-10-04T07:07:14.132Z,10
2022-10-04T07:08:14.071Z,9
2022-10-04T07:09:14.072Z,8
2022-10-04T07:10:14.086Z,8
2022-10-04T07:11:14.094Z,11
2022-10-04T07:12:14.105Z,8
2022-10-04T07:13:14.083Z,7
2022-10-04T07:14:14.079Z,8
2022-10-04T07:15:14.078Z,6
2022-10-04T07:16:14.194Z,8
2022-10-04T07:17:14.075Z,9
2022-10-04T07:18:14.083Z,8
2022-10-04T07:19:14.134Z,10
2022-10-04T07:20:14.093Z,10
2022-10-04T07:25:14.105Z,12
2022-10-04T07:26:14.082Z,6
2022-10-04T07:27:14.100Z,7
2022-10-04T07:28:14.227Z,7
2022-10-04T07:29:14.098Z,5
2022-10-04T07:30:14.082Z,5
2022-10-04T07:31:14.166Z,7
2022-10-04T07:32:14.082Z,7
2022-10-04T07:33:14.092Z,8
2022-10-04T07:34:14.089Z,7
2022-10-04T07:35:14.106Z,6
2022-10-04T07:36:16.687Z,8
2022-10-04T07:37:14.102Z,6
2022-10-04T07:38:14.122Z,6
2022-10-04T07:39:14.115Z,8
2022-10-04T07:43:14.099Z,7
2022-10-04T07:44:14.084Z,6
2022-10-04T07:45:14.101Z,6
2022-10-04T07:46:14.220Z,7
2022-10-04T07:47:14.092Z,6
2022-10-04T07:48:14.098Z,7
2022-10-04T07:49:14.101Z,6
2022-10-04T07:50:14.117Z,5
2022-10-04T07:51:14.103Z,12
2022-10-04T07:52:14.100Z,10
2022-10-04T07:53:14.136Z,8
2022-10-04T07:54:14.088Z,6
2022-10-04T07:55:14.096Z,6
2022-10-04T07:56:14.096Z,6
2022-10-04T07:57:14.108Z,10
2022-10-04T07:58:14.156Z,7
2022-10-04T07:59:14.095Z,8
2022-10-04T08:00:14.095Z,9
2022-10-04T08:01:14.103Z,6
2022-10-04T08:02:14.232Z,7
2022-10-04T08:03:14.172Z,9
2022-10-04T08:04:14.102Z,6
2022-10-04T08:05:14.100Z,8
2022-10-04T08:06:14.103Z,9
2022-10-04T08:07:14.136Z,6
2022-10-04T08:08:14.112Z,7
2022-10-04T08:09:14.128Z,10
2022-10-04T08:10:14.119Z,7
2022-10-04T08:11:14.098Z,7
2022-10-04T08:12:14.107Z,9
2022-10-04T08:13:14.104Z,11
2022-10-04T08:14:14.112Z,7
2022-10-04T08:15:14.117Z,8
2022-10-04T08:16:14.188Z,8
2022-10-04T08:17:15.750Z,12
2022-10-04T08:18:14.144Z,8
2022-10-04T08:19:14.115Z,6
2022-10-04T08:20:14.116Z,9
2022-10-04T08:21:14.114Z,7
2022-10-04T08:22:14.122Z,9
2022-10-04T08:23:14.122Z,9
2022-10-04T08:25:14.111Z,9
2022-10-04T08:26:14.123Z,7
2022-10-04T08:27:14.121Z,9
2022-10-04T08:28:14.189Z,6
2022-10-04T08:29:14.103Z,8
2022-10-04T08:30:14.121Z,9
2022-10-04T08:31:14.180Z,9
2022-10-04T08:32:14.111Z,13
2022-10-04T08:33:14.112Z,8
2022-10-04T08:34:14.119Z,9
2022-10-04T08:35:14.122Z,7
2022-10-04T08:36:14.117Z,9
2022-10-04T08:37:14.125Z,6
2022-10-04T08:38:14.126Z,8
2022-10-04T08:39:14.119Z,7
2022-10-04T08:40:14.127Z,8
2022-10-04T08:41:14.127Z,5
2022-10-04T08:42:14.128Z,7
2022-10-04T08:43:14.113Z,7
2022-10-04T08:45:14.159Z,7
2022-10-04T08:46:14.174Z,9
2022-10-04T08:47:15.966Z,7
2022-10-04T08:48:14.119Z,9
2022-10-04T08:49:14.131Z,6
2022-10-04T08:50:14.116Z,7
2022-10-04T08:51:14.119Z,9
2022-10-04T08:52:14.158Z,6
2022-10-04T08:53:14.153Z,7
2022-10-04T08:54:14.134Z,6
2022-10-04T08:55:14.160Z,6
2022-10-04T08:56:14.121Z,7
2022-10-04T08:57:16.306Z,7
2022-10-04T08:58:14.194Z,7
2022-10-04T08:59:14.129Z,6
2022-10-04T09:00:14.136Z,6
2022-10-04T09:01:14.182Z,10
2022-10-04T09:02:14.186Z,6
2022-10-04T09:03:15.290Z,7
2022-10-04T09:04:14.128Z,8
2022-10-04T09:05:14.183Z,8
2022-10-04T09:06:14.158Z,7
2022-10-04T09:07:14.167Z,6
2022-10-04T09:08:14.121Z,11
2022-10-04T09:09:14.141Z,8
2022-10-04T09:10:14.188Z,10
2022-10-04T09:11:14.142Z,7
2022-10-04T09:12:14.134Z,7
2022-10-04T09:13:14.117Z,8
2022-10-04T09:14:14.159Z,8
2022-10-04T09:15:14.145Z,6
2022-10-04T09:16:14.250Z,8
2022-10-04T09:17:16.473Z,7
2022-10-04T09:18:14.147Z,6
2022-10-04T09:19:14.135Z,6
2022-10-04T09:20:37.359Z,5
2022-10-04T09:21:14.147Z,8
2022-10-04T09:22:14.140Z,5
2022-10-04T09:23:14.161Z,5
2022-10-04T09:24:14.140Z,7
2022-10-04T09:25:14.159Z,8
2022-10-04T09:26:14.188Z,6
2022-10-04T09:27:23.101Z,7
2022-10-04T09:28:14.163Z,5
2022-10-04T09:29:14.134Z,8
2022-10-04T09:30:14.127Z,5
2022-10-04T09:31:14.228Z,6
2022-10-04T09:32:14.137Z,6
2022-10-04T09:33:14.140Z,7
2022-10-04T09:34:14.141Z,8
2022-10-04T09:35:14.131Z,6
2022-10-04T09:36:14.150Z,7
2022-10-04T09:37:14.153Z,9
2022-10-04T09:38:14.139Z,8
2022-10-04T09:39:29.505Z,7
2022-10-04T09:40:14.144Z,8
2022-10-04T09:41:14.137Z,7
2022-10-04T09:42:14.141Z,5
2022-10-04T09:43:14.143Z,6
2022-10-04T09:44:14.148Z,6
2022-10-04T09:45:14.183Z,4
2022-10-04T09:46:14.225Z,8
2022-10-04T09:47:14.140Z,5
2022-10-04T09:48:14.145Z,6
2022-10-04T09:49:14.150Z,8
2022-10-04T09:50:14.268Z,6
2022-10-04T09:51:14.167Z,8
2022-10-04T09:52:14.152Z,7
2022-10-04T09:53:14.143Z,6
2022-10-04T09:54:14.145Z,6
2022-10-04T09:55:14.151Z,6
2022-10-04T09:56:14.142Z,7
2022-10-04T09:58:14.162Z,10
2022-10-04T09:59:14.152Z,5
2022-10-04T10:00:14.212Z,5
2022-10-04T10:01:14.219Z,6
2022-10-04T10:02:14.162Z,8
2022-10-04T10:03:16.057Z,6
2022-10-04T10:04:14.194Z,7
2022-10-04T10:05:14.159Z,7
2022-10-04T10:06:14.167Z,8
2022-10-04T10:07:14.147Z,6
2022-10-04T10:08:14.148Z,5
2022-10-04T10:09:14.150Z,5
2022-10-04T10:10:14.162Z,5
2022-10-04T10:11:14.153Z,6
2022-10-04T10:12:14.156Z,6
2022-10-04T10:13:14.149Z,6
2022-10-04T10:14:14.152Z,7
2022-10-04T10:15:14.173Z,6
2022-10-04T10:16:14.292Z,4
2022-10-04T10:17:14.165Z,5
2022-10-04T10:18:14.174Z,5
2022-10-04T10:19:14.174Z,8
2022-10-04T10:20:14.179Z,7
2022-10-04T10:21:14.174Z,5
2022-10-04T10:25:14.172Z,7
2022-10-04T10:26:14.167Z,8
2022-10-04T10:27:14.169Z,5
2022-10-04T10:28:14.270Z,4
2022-10-04T10:29:14.935Z,7
2022-10-04T10:30:14.169Z,7
2022-10-04T10:31:14.337Z,6
2022-10-04T10:32:14.173Z,6
2022-10-04T10:34:14.173Z,5
2022-10-04T10:35:14.177Z,5
2022-10-04T10:36:14.163Z,7
2022-10-04T10:37:14.169Z,5
2022-10-04T10:38:14.162Z,6
2022-10-04T10:39:14.163Z,6
2022-10-04T10:40:14.171Z,5
2022-10-04T10:41:14.172Z,5
2022-10-04T10:42:14.180Z,5
2022-10-04T10:43:14.162Z,7
2022-10-04T10:44:14.242Z,5
2022-10-04T10:45:14.208Z,7
2022-10-04T10:46:14.227Z,6
2022-10-04T10:47:14.171Z,7
2022-10-04T10:48:14.158Z,5
2022-10-04T10:49:15.514Z,5
2022-10-04T10:50:14.194Z,7
2022-10-04T10:51:14.187Z,6
2022-10-04T10:52:14.176Z,9
2022-10-04T10:53:14.175Z,7
2022-10-04T10:54:14.174Z,6
2022-10-04T10:55:14.180Z,5
2022-10-04T10:56:14.182Z,5
2022-10-04T10:57:14.184Z,7
2022-10-04T10:58:14.178Z,5
2022-10-04T10:59:14.237Z,6
2022-10-04T11:00:14.209Z,5
2022-10-04T11:01:14.280Z,8
2022-10-04T11:02:14.344Z,5
2022-10-04T11:03:16.470Z,8
2022-10-04T11:04:14.187Z,7
2022-10-04T11:05:14.213Z,6
2022-10-04T11:06:14.199Z,5
2022-10-04T11:07:14.191Z,5
2022-10-04T11:08:14.178Z,5
2022-10-04T11:09:14.194Z,7
2022-10-04T11:10:14.223Z,6
2022-10-04T11:11:14.231Z,6
2022-10-04T11:12:14.202Z,7
2022-10-04T11:13:14.192Z,6
2022-10-04T11:14:14.195Z,6
2022-10-04T11:16:14.266Z,6
2022-10-04T11:17:14.196Z,6
2022-10-04T11:18:14.194Z,6
2022-10-04T11:19:14.200Z,6
2022-10-04T11:20:14.185Z,5
2022-10-04T11:21:14.190Z,6
2022-10-04T11:22:14.189Z,7
2022-10-04T11:23:14.182Z,6
2022-10-04T11:24:14.189Z,6
2022-10-04T11:25:14.200Z,5
2022-10-04T11:26:14.187Z,5
2022-10-04T11:27:14.182Z,7
2022-10-04T11:28:14.317Z,6
2022-10-04T11:29:14.187Z,6
2022-10-04T11:30:14.215Z,6
2022-10-04T11:31:14.256Z,4
2022-10-04T11:32:14.202Z,7
2022-10-04T11:33:14.188Z,7
2022-10-04T11:34:16.765Z,6
2022-10-04T11:36:14.189Z,6
2022-10-04T11:37:14.197Z,5
2022-10-04T11:38:14.194Z,7
2022-10-04T11:39:14.187Z,7
2022-10-04T11:40:14.268Z,8
2022-10-04T11:41:14.197Z,5
2022-10-04T11:42:14.208Z,4
2022-10-04T11:43:14.205Z,5
2022-10-04T11:44:14.196Z,6
2022-10-04T11:45:14.197Z,9
2022-10-04T11:46:14.313Z,7
2022-10-04T11:47:14.254Z,6
2022-10-04T11:48:14.205Z,5
2022-10-04T11:49:14.267Z,5
2022-10-04T11:50:14.237Z,8
2022-10-04T11:51:14.202Z,5
2022-10-04T11:52:14.203Z,6
2022-10-04T11:53:14.220Z,5
2022-10-04T11:54:14.206Z,5
2022-10-04T11:55:14.197Z,5
2022-10-04T11:56:14.210Z,6
2022-10-04T11:57:14.199Z,4
2022-10-04T11:58:14.202Z,4
2022-10-04T11:59:14.197Z,6
2022-10-04T12:00:14.204Z,5
2022-10-04T12:02:14.209Z,4
2022-10-04T12:03:14.234Z,8
2022-10-04T12:04:14.338Z,5
2022-10-04T12:05:14.603Z,4
2022-10-04T12:06:14.217Z,5
2022-10-04T12:07:14.209Z,5
2022-10-04T12:08:14.215Z,5
2022-10-04T12:09:14.211Z,7
2022-10-04T12:10:14.211Z,5
2022-10-04T12:11:14.211Z,5
2022-10-04T12:12:14.207Z,5
2022-10-04T12:14:14.206Z,6
2022-10-04T12:15:14.214Z,5
2022-10-04T12:16:14.315Z,4
2022-10-04T12:17:14.217Z,9
2022-10-04T12:18:14.222Z,6
2022-10-04T12:19:14.217Z,6
2022-10-04T12:23:14.211Z,7
2022-10-04T12:24:14.217Z,4
2022-10-04T12:25:14.217Z,5
2022-10-04T12:26:18.470Z,8
2022-10-04T12:27:14.235Z,5
2022-10-04T12:28:14.297Z,6
2022-10-04T12:29:14.226Z,6
2022-10-04T12:30:14.217Z,5
2022-10-04T12:31:14.288Z,5
2022-10-04T12:32:14.315Z,5
2022-10-04T12:33:14.238Z,5
2022-10-04T12:34:14.224Z,5
2022-10-04T12:35:14.225Z,5
2022-10-04T12:36:14.245Z,8
2022-10-04T12:37:14.247Z,6
2022-10-04T12:38:14.238Z,5
2022-10-04T12:39:14.220Z,6
2022-10-04T12:40:14.237Z,6
2022-10-04T12:41:14.223Z,6
2022-10-04T12:42:14.235Z,5
2022-10-04T12:44:14.237Z,6
2022-10-04T12:45:14.229Z,7
2022-10-04T12:46:14.323Z,5
2022-10-04T12:47:14.238Z,4
2022-10-04T12:50:14.238Z,5
2022-10-04T12:51:14.227Z,7
2022-10-04T12:52:14.236Z,5
2022-10-04T12:53:14.237Z,6
2022-10-04T12:54:14.246Z,6
2022-10-04T12:56:14.220Z,4
2022-10-04T12:57:14.248Z,7
2022-10-04T12:58:14.219Z,5
2022-10-04T12:59:14.228Z,6
2022-10-04T13:01:14.245Z,6
2022-10-04T13:03:14.254Z,6
2022-10-04T13:04:14.225Z,5
2022-10-04T13:05:14.284Z,6
2022-10-04T13:06:14.255Z,7
2022-10-04T13:07:14.253Z,6
2022-10-04T13:08:14.248Z,7
2022-10-04T13:09:14.250Z,5
2022-10-04T13:10:29.650Z,4
2022-10-04T13:11:14.230Z,5
2022-10-04T13:12:14.248Z,5
2022-10-04T13:13:14.246Z,7
2022-10-04T13:14:14.261Z,8
2022-10-04T13:15:14.256Z,10
2022-10-04T13:17:35.708Z,5
2022-10-04T13:18:14.234Z,6
2022-10-04T13:19:14.233Z,8
2022-10-04T13:20:14.243Z,5
2022-10-04T13:21:14.262Z,5
2022-10-04T13:22:15.640Z,6
2022-10-04T13:23:14.238Z,6
2022-10-04T13:24:14.280Z,8
2022-10-04T13:25:14.241Z,7
2022-10-04T13:26:14.260Z,6
2022-10-04T13:27:14.256Z,5
2022-10-04T13:28:14.274Z,6
2022-10-04T13:29:14.254Z,5
2022-10-04T13:30:14.293Z,9
2022-10-04T13:31:14.355Z,6
2022-10-04T13:32:14.333Z,6
2022-10-04T13:33:14.245Z,6
2022-10-04T13:35:14.257Z,4
2022-10-04T13:36:14.269Z,8
2022-10-04T13:40:14.277Z,6
2022-10-04T13:41:14.264Z,8
2022-10-04T13:42:14.267Z,7
2022-10-04T13:43:14.258Z,8
2022-10-04T13:44:14.251Z,6
2022-10-04T13:45:14.273Z,7
2022-10-04T13:48:17.098Z,6
2022-10-04T13:49:14.275Z,6
2022-10-04T13:50:14.253Z,5
2022-10-04T13:51:14.249Z,9
2022-10-04T13:52:14.250Z,5
2022-10-04T13:53:14.263Z,4
2022-10-04T13:54:14.268Z,5
2022-10-04T13:55:14.258Z,6
2022-10-04T13:56:14.254Z,7
2022-10-04T13:57:14.254Z,9
2022-10-04T13:58:14.259Z,5
2022-10-04T13:59:14.264Z,7
2022-10-04T14:00:14.271Z,8
2022-10-04T14:01:14.354Z,7
2022-10-04T14:02:14.280Z,5
2022-10-04T14:03:14.288Z,5
2022-10-04T14:04:14.263Z,6
2022-10-04T14:05:14.416Z,5
2022-10-04T14:06:14.284Z,10
2022-10-04T14:07:14.271Z,7
2022-10-04T14:08:14.256Z,25
2022-10-04T14:09:14.266Z,6
2022-10-04T14:10:14.274Z,5
2022-10-04T14:11:14.271Z,5
2022-10-04T14:12:14.268Z,7
2022-10-04T14:13:14.259Z,8
2022-10-04T14:14:14.267Z,8
2022-10-04T14:15:14.283Z,6
2022-10-04T14:16:14.323Z,4
2022-10-04T14:17:14.274Z,7
2022-10-04T14:18:14.276Z,6
2022-10-04T14:19:14.278Z,6
2022-10-04T14:20:14.278Z,6
2022-10-04T14:21:19.133Z,5
2022-10-04T14:22:14.275Z,10
2022-10-04T14:23:14.275Z,6
2022-10-04T14:24:14.278Z,8
2022-10-04T14:26:14.272Z,6
2022-10-04T14:27:14.277Z,6
2022-10-04T14:28:14.384Z,9
2022-10-04T14:29:14.279Z,8
2022-10-04T14:30:14.274Z,12
2022-10-04T14:34:14.277Z,6
2022-10-04T14:35:14.261Z,4
2022-10-04T14:36:14.346Z,7
2022-10-04T14:37:14.287Z,9
2022-10-04T14:38:14.276Z,6
2022-10-04T14:39:14.282Z,6
2022-10-04T14:40:14.282Z,7
2022-10-04T14:42:14.284Z,5
2022-10-04T14:43:14.279Z,14
2022-10-04T14:44:14.266Z,9
2022-10-04T14:45:14.863Z,7
2022-10-04T14:47:14.279Z,7
2022-10-04T14:48:14.276Z,6
2022-10-04T14:51:14.290Z,5
2022-10-04T14:52:14.280Z,7
2022-10-04T14:53:14.280Z,7
2022-10-04T14:54:14.322Z,9
2022-10-04T14:56:14.298Z,7
2022-10-04T14:57:14.299Z,7
2022-10-04T14:58:14.282Z,8
2022-10-04T14:59:14.290Z,8
2022-10-04T15:00:14.286Z,5
2022-10-04T15:01:14.379Z,7
2022-10-04T15:02:14.284Z,7
2022-10-04T15:03:14.281Z,6
2022-10-04T15:04:14.378Z,7
2022-10-04T15:05:14.281Z,5
2022-10-04T15:06:14.284Z,8
2022-10-04T15:08:14.300Z,9
2022-10-04T15:09:14.285Z,9
2022-10-04T15:10:14.293Z,7
2022-10-04T15:11:14.290Z,9
2022-10-04T15:12:32.447Z,5
2022-10-04T15:13:14.295Z,6
2022-10-04T15:14:14.299Z,5
2022-10-04T15:15:14.397Z,6
2022-10-04T15:16:14.791Z,7
2022-10-04T15:17:14.282Z,4
2022-10-04T15:18:14.292Z,8
2022-10-04T15:19:14.290Z,5
2022-10-04T15:20:14.287Z,6
2022-10-04T15:21:14.282Z,6
2022-10-04T15:22:14.299Z,6
2022-10-04T15:23:14.314Z,6
2022-10-04T15:24:14.302Z,7
2022-10-04T15:25:14.340Z,6
2022-10-04T15:26:14.296Z,5
2022-10-04T15:27:14.308Z,5
2022-10-04T15:31:14.338Z,6
2022-10-04T15:32:14.313Z,5
2022-10-04T15:33:14.365Z,6
2022-10-04T15:34:14.317Z,6
2022-10-04T15:35:14.302Z,6
2022-10-04T15:36:14.301Z,5
2022-10-04T15:37:14.294Z,6